Time;durP1;ratioP1;P1;durP2;ratioP2;P2;SDS_P1;SDS_P2;PMS_P1;PMS_P2;Temp;Humidity;BMP_temperature;BMP_pressure;BME280_temperature;BME280_humidity;BME280_pressure;Samples;Min_cycle;Max_cycle;Signal;HPM_P1;HPM_P2
2022/01/27 00:05:38;;;;;;;;;;;-2.60;94.70;;;;;;5052000;28;19971;-81
2022/01/27 00:13:19;;;;;;;;;;;-2.70;94.70;;;;;;5054823;28;19929;-77
2022/01/27 00:15:57;;;;;;;;;;;-2.80;94.70;;;;;;5045874;28;20292;-81
2022/01/27 00:18:24;;;;;;;;;;;-2.70;94.80;;;;;;5049573;28;19936;-77
2022/01/27 00:20:51;;;;;;;;;;;-2.80;94.80;;;;;;5048868;28;20314;-77
2022/01/27 00:23:18;;;;;;;;;;;-2.80;94.90;;;;;;5054763;28;19929;-78
2022/01/27 00:25:45;;;;;;;;;;;-2.90;94.70;;;;;;5069596;28;19963;-81
2022/01/27 00:28:13;;;;;;;;;;;-2.90;94.70;;;;;;5069492;28;19929;-78
2022/01/27 00:30:40;;;;;;;;;;;-2.90;94.70;;;;;;5071174;28;19928;-77
2022/01/27 00:33:08;;;;;;;;;;;-2.90;94.80;;;;;;5044382;28;19935;-77
2022/01/27 00:35:35;;;;;;;;;;;-2.90;94.80;;;;;;5064722;28;19925;-81
2022/01/27 00:38:02;;;;;;;;;;;-3.00;94.80;;;;;;5039674;28;19924;-80
2022/01/27 00:40:29;;;;;;;;;;;-3.00;94.90;;;;;;5050190;28;19925;-77
2022/01/27 00:42:56;;;;;;;;;;;-2.90;94.90;;;;;;5053474;28;19925;-79
2022/01/27 00:45:24;;;;;;;;;;;-3.00;94.80;;;;;;5062259;28;19925;-81
2022/01/27 00:47:51;;;;;;;;;;;-3.00;94.90;;;;;;5050080;28;19925;-77
2022/01/27 00:50:19;;;;;;;;;;;-3.00;94.90;;;;;;5033646;28;19935;-77
2022/01/27 00:52:53;;;;;;;;;;;-3.00;94.90;;;;;;5044232;28;19929;-77
2022/01/27 00:55:22;;;;;;;;;;;-3.00;94.90;;;;;;5052002;28;20435;-79
2022/01/27 00:58:04;;;;;;;;;;;-2.90;95.00;;;;;;5058611;28;20408;-81
2022/01/27 01:00:40;;;;;;;;;;;-2.90;95.00;;;;;;5052783;28;19975;-81
2022/01/27 01:03:22;;;;;;;;;;;-2.90;94.90;;;;;;5017712;28;20016;-77
2022/01/27 01:06:13;;;;;;;;;;;-2.80;94.90;;;;;;5039940;28;19925;-76
2022/01/27 01:11:35;;;;;;;;;;;-2.80;94.80;;;;;;5044101;28;19933;-82
2022/01/27 01:16:57;;;;;;;;;;;-2.80;94.70;;;;;;5060148;28;19928;-78
2022/01/27 01:33:04;;;;;;;;;;;-3.00;94.50;;;;;;5062767;28;19925;-78
2022/01/27 01:35:51;;;;;;;;;;;-3.00;94.50;;;;;;5050865;28;19924;-80
2022/01/27 01:38:19;;;;;;;;;;;-3.00;94.50;;;;;;5034498;28;19979;-81
2022/01/27 01:40:47;;;;;;;;;;;-3.00;94.50;;;;;;5043172;28;20019;-77
2022/01/27 01:43:14;;;;;;;;;;;-3.00;94.50;;;;;;5033156;28;20331;-79
2022/01/27 01:45:41;;;;;;;;;;;-3.00;94.50;;;;;;5056752;28;20297;-77
2022/01/27 01:48:08;;;;;;;;;;;-3.00;94.50;;;;;;5069800;28;19929;-80
2022/01/27 01:50:35;;;;;;;;;;;-3.00;94.40;;;;;;5073302;28;19924;-80
2022/01/27 01:53:03;;;;;;;;;;;-2.90;94.50;;;;;;5055976;28;20269;-77
2022/01/27 01:55:30;;;;;;;;;;;-2.90;94.40;;;;;;5055258;28;19928;-78
2022/01/27 01:57:58;;;;;;;;;;;-2.90;94.40;;;;;;5055677;28;19932;-77
2022/01/27 02:00:25;;;;;;;;;;;-2.90;94.40;;;;;;5055729;28;19932;-77
2022/01/27 02:02:52;;;;;;;;;;;-2.90;94.40;;;;;;5033894;28;20348;-76
2022/01/27 02:05:20;;;;;;;;;;;-2.90;94.40;;;;;;5044947;28;19933;-77
2022/01/27 02:08:29;;;;;;;;;;;-2.90;94.40;;;;;;5037598;28;19925;-81
2022/01/27 02:19:18;;;;;;;;;;;-2.90;94.50;;;;;;5037733;28;20681;-81
2022/01/27 02:21:50;;;;;;;;;;;-2.90;94.50;;;;;;5050553;28;19976;-81
2022/01/27 02:24:18;;;;;;;;;;;-2.90;94.50;;;;;;5045274;28;19928;-77
2022/01/27 02:26:47;;;;;;;;;;;-2.90;94.50;;;;;;5020762;28;19925;-79
2022/01/27 02:29:15;;;;;;;;;;;-2.90;94.60;;;;;;5031522;28;19925;-78
2022/01/27 02:31:42;;;;;;;;;;;-2.90;94.60;;;;;;5043883;28;19975;-79
2022/01/27 02:34:09;;;;;;;;;;;-2.90;94.60;;;;;;5037894;28;19975;-77
2022/01/27 02:36:36;;;;;;;;;;;-3.00;94.50;;;;;;5027912;28;19973;-81
2022/01/27 02:39:04;;;;;;;;;;;-3.00;94.50;;;;;;5062044;28;19924;-81
2022/01/27 02:41:31;;;;;;;;;;;-3.00;94.50;;;;;;5040798;28;20017;-78
2022/01/27 02:43:58;;;;;;;;;;;-3.10;94.50;;;;;;5037568;28;20369;-79
2022/01/27 02:46:30;;;;;;;;;;;-3.10;94.50;;;;;;5065271;28;20458;-81
2022/01/27 02:48:57;;;;;;;;;;;-3.20;94.50;;;;;;5041400;28;19924;-78
2022/01/27 02:51:24;;;;;;;;;;;-3.20;94.70;;;;;;5029192;28;19925;-78
2022/01/27 02:53:51;;;;;;;;;;;-3.20;94.80;;;;;;5043714;28;19975;-77
2022/01/27 02:56:18;;;;;;;;;;;-3.20;94.80;;;;;;5050306;28;19933;-81
2022/01/27 02:58:46;;;;;;;;;;;-3.20;94.80;;;;;;5021693;28;19993;-77
2022/01/27 03:01:20;;;;;;;;;;;-3.30;95.20;;;;;;5044981;28;20342;-77
2022/01/27 03:03:47;;;;;;;;;;;-3.30;94.80;;;;;;5051916;28;19931;-77
2022/01/27 03:06:14;;;;;;;;;;;-3.40;94.80;;;;;;5045459;28;20344;-81
2022/01/27 03:08:41;;;;;;;;;;;-3.40;94.80;;;;;;5039761;28;19926;-79
2022/01/27 03:11:13;;;;;;;;;;;-3.50;94.90;;;;;;5032250;28;19932;-77
2022/01/27 03:13:40;;;;;;;;;;;-3.40;95.00;;;;;;5047601;28;19925;-77
2022/01/27 03:16:08;;;;;;;;;;;-3.40;95.00;;;;;;5051044;28;20407;-79
2022/01/27 03:18:35;;;;;;;;;;;-3.40;95.00;;;;;;5043278;28;19928;-77
2022/01/27 03:21:03;;;;;;;;;;;-3.40;95.10;;;;;;5068587;28;19928;-77
2022/01/27 03:23:30;;;;;;;;;;;-3.40;95.10;;;;;;5063700;28;19933;-81
2022/01/27 03:25:57;;;;;;;;;;;-3.50;95.20;;;;;;5067009;28;19924;-79
2022/01/27 03:28:29;;;;;;;;;;;-3.50;95.20;;;;;;5048957;28;19928;-81
2022/01/27 03:30:56;;;;;;;;;;;-3.40;95.20;;;;;;5030479;28;19935;-77
2022/01/27 03:33:23;;;;;;;;;;;-3.50;95.10;;;;;;5039532;28;20391;-77
2022/01/27 03:35:50;;;;;;;;;;;-3.40;95.20;;;;;;5052239;28;19929;-81
2022/01/27 03:38:17;;;;;;;;;;;-3.50;95.10;;;;;;5018438;28;19925;-79
2022/01/27 03:40:44;;;;;;;;;;;-3.50;95.00;;;;;;5042767;28;20285;-77
2022/01/27 03:43:11;;;;;;;;;;;-3.50;95.10;;;;;;5051514;28;20392;-79
2022/01/27 03:45:39;;;;;;;;;;;-3.50;95.00;;;;;;5027163;28;19931;-77
2022/01/27 03:48:06;;;;;;;;;;;-3.50;95.00;;;;;;5051109;28;19929;-77
2022/01/27 03:50:33;;;;;;;;;;;-3.50;95.10;;;;;;5026506;28;19929;-81
2022/01/27 03:53:00;;;;;;;;;;;-3.50;95.00;;;;;;5032513;28;19929;-77
2022/01/27 03:55:27;;;;;;;;;;;-3.40;95.00;;;;;;5046679;28;19998;-77
2022/01/27 03:57:54;;;;;;;;;;;-3.40;95.00;;;;;;5020197;28;20389;-79
2022/01/27 04:00:20;;;;;;;;;;;-3.40;95.00;;;;;;5037441;28;19948;-77
2022/01/27 04:03:02;;;;;;;;;;;-3.50;94.90;;;;;;5032003;28;19926;-79
2022/01/27 04:05:36;;;;;;;;;;;-3.40;94.90;;;;;;5035554;28;19994;-79
2022/01/27 04:08:04;;;;;;;;;;;-3.50;94.70;;;;;;5054092;28;19928;-81
2022/01/27 04:10:31;;;;;;;;;;;-3.50;94.70;;;;;;5044736;28;20458;-81
2022/01/27 04:12:59;;;;;;;;;;;-3.50;94.70;;;;;;5032095;28;19925;-80
2022/01/27 04:15:25;;;;;;;;;;;-3.50;94.70;;;;;;5071092;28;19974;-77
2022/01/27 04:17:53;;;;;;;;;;;-3.60;94.60;;;;;;5061523;28;20339;-81
2022/01/27 04:20:22;;;;;;;;;;;-3.60;94.60;;;;;;5033374;28;19929;-81
2022/01/27 04:22:49;;;;;;;;;;;-3.60;94.50;;;;;;5030628;28;19982;-81
2022/01/27 04:25:16;;;;;;;;;;;-3.70;94.40;;;;;;5048268;28;19935;-81
2022/01/27 04:27:49;;;;;;;;;;;-3.70;94.40;;;;;;5047768;28;20678;-81
2022/01/27 04:30:21;;;;;;;;;;;-3.70;94.40;;;;;;5056343;28;20446;-79
2022/01/27 04:33:00;;;;;;;;;;;-3.70;94.40;;;;;;5049728;28;19928;-77
2022/01/27 04:35:30;;;;;;;;;;;-3.80;94.40;;;;;;5056188;28;19925;-81
2022/01/27 04:40:50;;;;;;;;;;;-3.90;94.40;;;;;;5017966;28;19929;-78
2022/01/27 04:48:46;;;;;;;;;;;-3.90;94.60;;;;;;5020801;28;19925;-78
2022/01/27 04:51:16;;;;;;;;;;;-3.90;94.60;;;;;;5024449;28;20398;-77
2022/01/27 04:53:50;;;;;;;;;;;-3.90;94.60;;;;;;5022946;28;20368;-77
2022/01/27 04:56:19;;;;;;;;;;;-3.90;94.50;;;;;;5032548;28;19932;-81
2022/01/27 04:58:49;;;;;;;;;;;-3.90;94.60;;;;;;5016545;28;19929;-78
2022/01/27 05:01:18;;;;;;;;;;;-3.90;94.60;;;;;;5011257;28;19929;-79
2022/01/27 05:03:50;;;;;;;;;;;-3.90;94.50;;;;;;5001621;28;19929;-77
2022/01/27 05:06:17;;;;;;;;;;;-3.90;94.50;;;;;;5015430;28;20421;-81
2022/01/27 05:08:44;;;;;;;;;;;-3.90;94.50;;;;;;5017865;28;19939;-77
2022/01/27 05:13:49;;;;;;;;;;;-3.80;94.60;;;;;;5059760;28;19928;-77
2022/01/27 05:16:17;;;;;;;;;;;-3.80;94.60;;;;;;5073326;28;19994;-81
2022/01/27 05:18:47;;;;;;;;;;;-3.80;94.50;;;;;;5063941;28;19935;-81
2022/01/27 05:21:15;;;;;;;;;;;-3.80;94.50;;;;;;5030553;28;19951;-81
2022/01/27 05:23:44;;;;;;;;;;;-3.80;94.50;;;;;;5048716;28;19928;-80
2022/01/27 05:26:11;;;;;;;;;;;-3.90;94.40;;;;;;5071158;28;20522;-81
2022/01/27 05:28:40;;;;;;;;;;;-3.90;94.90;;;;;;5040397;28;20401;-78
2022/01/27 05:31:07;;;;;;;;;;;-3.90;94.50;;;;;;5072799;28;20396;-78
2022/01/27 05:33:34;;;;;;;;;;;-3.90;94.60;;;;;;5040663;28;19976;-78
2022/01/27 05:36:01;;;;;;;;;;;-3.90;94.60;;;;;;5056243;28;19925;-77
2022/01/27 05:38:28;;;;;;;;;;;-3.90;94.50;;;;;;5068706;28;19924;-77
2022/01/27 05:40:57;;;;;;;;;;;-3.90;94.50;;;;;;5068873;28;19932;-81
2022/01/27 05:43:25;;;;;;;;;;;-3.90;94.50;;;;;;5035459;28;20340;-81
2022/01/27 05:45:52;;;;;;;;;;;-3.90;94.60;;;;;;5027668;28;19932;-78
2022/01/27 05:48:19;;;;;;;;;;;-4.00;94.60;;;;;;5058189;28;20333;-81
2022/01/27 05:50:46;;;;;;;;;;;-3.90;94.70;;;;;;5021391;28;19925;-79
2022/01/27 05:53:13;;;;;;;;;;;-3.90;94.70;;;;;;5030942;28;19947;-77
2022/01/27 05:55:40;;;;;;;;;;;-3.90;94.60;;;;;;5045668;28;20392;-79
2022/01/27 05:58:07;;;;;;;;;;;-3.90;94.60;;;;;;5040656;28;20270;-78
2022/01/27 06:00:34;;;;;;;;;;;-3.90;94.50;;;;;;5027300;28;19925;-78
2022/01/27 06:03:01;;;;;;;;;;;-4.00;94.50;;;;;;5035520;28;19936;-78
2022/01/27 06:05:28;;;;;;;;;;;-4.00;94.40;;;;;;5031476;28;20439;-79
2022/01/27 06:07:56;;;;;;;;;;;-4.10;94.90;;;;;;5034546;28;19932;-77
2022/01/27 06:10:22;;;;;;;;;;;-4.10;94.60;;;;;;5033121;28;19940;-78
2022/01/27 06:12:56;;;;;;;;;;;-4.10;94.60;;;;;;5039186;28;19925;-77
2022/01/27 06:15:24;;;;;;;;;;;-4.10;94.60;;;;;;5034944;28;19925;-77
2022/01/27 06:17:52;;;;;;;;;;;-4.10;94.60;;;;;;5036042;28;19929;-79
2022/01/27 06:20:19;;;;;;;;;;;-4.10;94.50;;;;;;5051282;28;19982;-77
2022/01/27 06:22:46;;;;;;;;;;;-4.20;94.50;;;;;;5067351;28;19924;-77
2022/01/27 06:25:14;;;;;;;;;;;-4.10;94.60;;;;;;5059100;28;19925;-78
2022/01/27 06:27:41;;;;;;;;;;;-4.10;94.60;;;;;;5040935;28;19929;-80
2022/01/27 06:30:10;;;;;;;;;;;-4.20;94.50;;;;;;5051475;28;20435;-77
2022/01/27 06:32:37;;;;;;;;;;;-4.20;94.50;;;;;;5051883;28;19979;-78
2022/01/27 06:35:04;;;;;;;;;;;-4.20;94.40;;;;;;5051654;28;19925;-78
2022/01/27 06:37:32;;;;;;;;;;;-4.30;94.40;;;;;;5057244;28;19928;-77
2022/01/27 06:39:59;;;;;;;;;;;-4.40;94.40;;;;;;5055154;28;19929;-79
2022/01/27 06:42:26;;;;;;;;;;;-4.40;94.50;;;;;;5061194;28;19928;-78
2022/01/27 06:44:53;;;;;;;;;;;-4.40;94.50;;;;;;5055603;28;20442;-79
2022/01/27 06:47:19;;;;;;;;;;;-4.40;94.60;;;;;;5071401;28;19976;-77
2022/01/27 06:49:46;;;;;;;;;;;-4.40;94.60;;;;;;5048946;28;19971;-80
2022/01/27 06:52:13;;;;;;;;;;;-4.40;94.60;;;;;;5047733;28;19925;-80
2022/01/27 06:54:40;;;;;;;;;;;-4.30;94.60;;;;;;5064015;28;19928;-77
2022/01/27 06:57:07;;;;;;;;;;;-4.30;94.60;;;;;;5067671;28;20404;-78
2022/01/27 06:59:35;;;;;;;;;;;-4.20;94.60;;;;;;5061393;28;19948;-77
2022/01/27 07:02:02;;;;;;;;;;;-4.20;94.60;;;;;;5072326;28;19928;-78
2022/01/27 07:04:29;;;;;;;;;;;-4.20;94.50;;;;;;5046397;28;19931;-79
2022/01/27 07:06:56;;;;;;;;;;;-4.20;94.40;;;;;;5071575;28;20331;-78
2022/01/27 07:09:23;;;;;;;;;;;-4.20;94.40;;;;;;5054047;28;20397;-80
2022/01/27 07:11:50;;;;;;;;;;;-4.20;94.40;;;;;;5050274;28;20334;-79
2022/01/27 07:14:17;;;;;;;;;;;-4.30;94.40;;;;;;5071946;28;19950;-79
2022/01/27 07:16:44;;;;;;;;;;;-4.30;94.30;;;;;;5055046;28;19974;-78
2022/01/27 07:19:11;;;;;;;;;;;-4.40;94.40;;;;;;5071304;28;19925;-78
2022/01/27 07:21:38;;;;;;;;;;;-4.40;94.50;;;;;;5064064;28;19928;-79
2022/01/27 07:24:05;;;;;;;;;;;-4.40;94.60;;;;;;5066823;28;19928;-80
2022/01/27 07:26:32;;;;;;;;;;;-4.40;94.60;;;;;;5042248;28;19968;-76
2022/01/27 07:28:59;;;;;;;;;;;-4.30;94.70;;;;;;5034539;28;19933;-77
2022/01/27 07:31:25;;;;;;;;;;;-4.30;94.70;;;;;;5039239;28;19967;-79
2022/01/27 07:33:53;;;;;;;;;;;-4.20;94.70;;;;;;5033636;28;19952;-77
2022/01/27 07:36:20;;;;;;;;;;;-4.20;94.60;;;;;;5046326;28;20036;-78
2022/01/27 07:38:48;;;;;;;;;;;-4.20;94.60;;;;;;5047666;28;19928;-77
2022/01/27 07:41:17;;;;;;;;;;;-4.20;94.40;;;;;;5050488;28;19952;-77
2022/01/27 07:43:45;;;;;;;;;;;-4.20;94.40;;;;;;5032870;28;19929;-77
2022/01/27 07:46:12;;;;;;;;;;;-4.10;94.40;;;;;;5032126;28;20443;-79
2022/01/27 07:48:40;;;;;;;;;;;-4.10;94.30;;;;;;5032887;28;19957;-80
2022/01/27 07:51:08;;;;;;;;;;;-4.10;94.30;;;;;;5050910;28;20328;-77
2022/01/27 07:53:37;;;;;;;;;;;-4.10;94.30;;;;;;5041877;28;20454;-80
2022/01/27 07:56:24;;;;;;;;;;;-4.10;94.30;;;;;;5026159;28;19925;-77
2022/01/27 07:58:51;;;;;;;;;;;-4.10;94.30;;;;;;5037281;28;19925;-80
2022/01/27 08:01:18;;;;;;;;;;;-4.00;94.30;;;;;;5042226;28;19929;-80
2022/01/27 08:03:45;;;;;;;;;;;-4.00;94.30;;;;;;5037350;28;19928;-77
2022/01/27 08:06:12;;;;;;;;;;;-3.90;94.20;;;;;;5066269;28;19924;-77
2022/01/27 08:08:39;;;;;;;;;;;-3.90;94.10;;;;;;5057980;28;19932;-76
2022/01/27 08:11:06;;;;;;;;;;;-3.90;94.00;;;;;;5034092;28;19928;-80
2022/01/27 08:13:33;;;;;;;;;;;-3.80;93.90;;;;;;5050651;28;19925;-77
2022/01/27 08:16:05;;;;;;;;;;;-3.90;93.70;;;;;;5033104;28;19945;-77
2022/01/27 08:18:44;;;;;;;;;;;-3.80;93.70;;;;;;5025301;28;19975;-77
2022/01/27 08:21:11;;;;;;;;;;;-3.60;93.70;;;;;;5062224;28;19931;-77
2022/01/27 08:23:41;;;;;;;;;;;-3.50;93.50;;;;;;5064693;28;19936;-80
2022/01/27 08:26:11;;;;;;;;;;;-3.40;93.40;;;;;;5026734;28;19933;-77
2022/01/27 08:28:56;;;;;;;;;;;-3.40;93.00;;;;;;5067109;28;19924;-77
2022/01/27 08:31:32;;;;;;;;;;;-3.40;92.90;;;;;;5058602;28;19932;-77
2022/01/27 08:34:03;;;;;;;;;;;-3.30;92.90;;;;;;5035415;28;19968;-78
2022/01/27 08:36:30;;;;;;;;;;;-3.30;92.90;;;;;;5050653;28;19936;-78
2022/01/27 08:38:57;;;;;;;;;;;-3.20;92.90;;;;;;5055097;28;19924;-77
2022/01/27 08:41:24;;;;;;;;;;;-3.20;92.90;;;;;;5059075;28;19970;-77
2022/01/27 08:43:53;;;;;;;;;;;-3.20;93.00;;;;;;5036446;28;19929;-77
2022/01/27 08:46:25;;;;;;;;;;;-3.10;93.10;;;;;;5029521;28;20026;-78
2022/01/27 08:48:52;;;;;;;;;;;-3.10;93.00;;;;;;5017852;28;19924;-78
2022/01/27 08:51:21;;;;;;;;;;;-3.10;93.00;;;;;;5030212;28;19940;-77
2022/01/27 08:53:49;;;;;;;;;;;-3.00;93.10;;;;;;5052713;28;19925;-78
2022/01/27 08:56:19;;;;;;;;;;;-2.90;93.10;;;;;;5037693;28;20332;-78
2022/01/27 08:58:46;;;;;;;;;;;-2.80;92.90;;;;;;5047775;28;20016;-79
2022/01/27 09:01:13;;;;;;;;;;;-2.80;92.80;;;;;;5041798;28;20371;-78
2022/01/27 09:03:40;;;;;;;;;;;-2.80;92.80;;;;;;5043358;28;20475;-79
2022/01/27 09:06:07;;;;;;;;;;;-2.80;92.90;;;;;;5070970;28;20012;-77
2022/01/27 09:08:40;;;;;;;;;;;-2.70;92.80;;;;;;5049751;28;19979;-80
2022/01/27 09:11:07;;;;;;;;;;;-2.60;92.80;;;;;;5029664;28;20400;-80
2022/01/27 09:13:34;;;;;;;;;;;-2.60;93.10;;;;;;5026853;28;20046;-78
2022/01/27 09:16:01;;;;;;;;;;;-2.60;92.30;;;;;;5029621;28;19925;-77
2022/01/27 09:18:28;;;;;;;;;;;-2.60;92.50;;;;;;5059613;28;19928;-77
2022/01/27 09:20:57;;;;;;;;;;;-2.50;92.50;;;;;;5073377;28;19932;-77
2022/01/27 09:23:24;;;;;;;;;;;-2.40;92.40;;;;;;5070982;28;19935;-78
2022/01/27 09:25:55;;;;;;;;;;;-2.30;92.40;;;;;;5074084;28;19932;-79
2022/01/27 09:28:22;;;;;;;;;;;-2.20;92.20;;;;;;5069553;28;20328;-78
2022/01/27 09:30:48;;;;;;;;;;;-2.30;92.10;;;;;;5064868;28;19925;-78
2022/01/27 09:33:15;;;;;;;;;;;-2.20;92.10;;;;;;5058325;28;20015;-79
2022/01/27 09:35:42;;;;;;;;;;;-2.20;91.90;;;;;;5017265;28;20408;-80
2022/01/27 09:38:09;;;;;;;;;;;-2.20;92.00;;;;;;5030921;28;19987;-78
2022/01/27 09:40:36;;;;;;;;;;;-2.20;91.90;;;;;;5059710;28;19947;-77
2022/01/27 09:43:04;;;;;;;;;;;-2.20;91.90;;;;;;5063789;28;19932;-79
2022/01/27 09:45:36;;;;;;;;;;;-2.20;92.00;;;;;;5070136;28;19932;-79
2022/01/27 09:48:12;;;;;;;;;;;-2.10;92.10;;;;;;5043315;28;20448;-79
2022/01/27 09:53:13;;;;;;;;;;;-1.90;92.30;;;;;;5054339;28;19997;-80
2022/01/27 09:55:40;;;;;;;;;;;-1.80;92.10;;;;;;5032280;28;20433;-78
2022/01/27 09:58:08;;;;;;;;;;;-1.70;92.10;;;;;;5059886;28;20380;-78
2022/01/27 10:00:35;;;;;;;;;;;-1.60;92.20;;;;;;5021672;28;20381;-78
2022/01/27 10:03:07;;;;;;;;;;;-1.40;92.30;;;;;;5063177;28;19925;-78
2022/01/27 10:05:34;;;;;;;;;;;-1.30;92.10;;;;;;5046098;28;20385;-78
2022/01/27 10:08:03;;;;;;;;;;;-1.10;91.90;;;;;;5066969;28;19986;-79
2022/01/27 10:10:41;;;;;;;;;;;-1.00;91.70;;;;;;5041316;28;19928;-78
2022/01/27 10:13:25;;;;;;;;;;;-0.80;91.80;;;;;;5068531;28;19925;-80
2022/01/27 10:15:54;;;;;;;;;;;-0.70;91.60;;;;;;5064487;28;19924;-78
2022/01/27 10:18:25;;;;;;;;;;;-0.60;91.20;;;;;;5048873;28;19933;-78
2022/01/27 10:20:59;;;;;;;;;;;-0.40;91.20;;;;;;5055545;28;20304;-80
2022/01/27 10:23:30;;;;;;;;;;;-0.30;91.20;;;;;;5046616;28;20331;-80
2022/01/27 10:26:07;;;;;;;;;;;-0.20;90.70;;;;;;5068777;28;20518;-78
2022/01/27 10:31:24;;;;;;;;;;;0.10;90.80;;;;;;5070364;28;19932;-79
2022/01/27 10:33:55;;;;;;;;;;;0.20;91.00;;;;;;5055014;28;20347;-79
2022/01/27 10:36:23;;;;;;;;;;;0.30;90.90;;;;;;5058587;28;19928;-79
2022/01/27 10:38:52;;;;;;;;;;;0.40;90.60;;;;;;5054434;28;19979;-77
2022/01/27 10:41:21;;;;;;;;;;;0.50;90.80;;;;;;5055275;28;19981;-78
2022/01/27 10:43:47;;;;;;;;;;;0.60;90.90;;;;;;5045927;28;19928;-77
2022/01/27 10:46:27;;;;;;;;;;;0.80;90.70;;;;;;5062340;28;19931;-77
2022/01/27 10:51:36;;;;;;;;;;;1.10;90.50;;;;;;5052869;28;19935;-78
2022/01/27 10:54:20;;;;;;;;;;;1.10;90.30;;;;;;5023618;28;19929;-79
2022/01/27 10:56:48;;;;;;;;;;;1.30;89.90;;;;;;5023041;28;19929;-79
2022/01/27 10:59:19;;;;;;;;;;;1.40;90.00;;;;;;5039254;28;20012;-77
2022/01/27 11:01:50;;;;;;;;;;;1.50;90.10;;;;;;5072157;28;19974;-79
2022/01/27 11:04:19;;;;;;;;;;;1.50;89.00;;;;;;5027975;28;19925;-77
2022/01/27 11:06:57;;;;;;;;;;;1.60;89.10;;;;;;5040485;28;19929;-80
2022/01/27 11:09:24;;;;;;;;;;;1.70;89.10;;;;;;5038945;28;19929;-77
2022/01/27 11:11:53;;;;;;;;;;;1.80;89.00;;;;;;5044175;28;19956;-77
2022/01/27 11:14:20;;;;;;;;;;;1.90;88.60;;;;;;5041914;28;19925;-78
2022/01/27 11:16:50;;;;;;;;;;;2.10;88.00;;;;;;5043289;28;19979;-78
2022/01/27 11:22:01;;;;;;;;;;;2.10;87.70;;;;;;5072364;28;20289;-78
2022/01/27 11:24:55;;;;;;;;;;;2.20;87.60;;;;;;5050424;28;19928;-77
2022/01/27 11:27:23;;;;;;;;;;;2.40;87.20;;;;;;5053878;28;20445;-77
2022/01/27 11:29:56;;;;;;;;;;;2.60;87.00;;;;;;5071690;28;19928;-78
2022/01/27 11:32:48;;;;;;;;;;;2.70;86.30;;;;;;5050482;28;19933;-77
2022/01/27 11:35:17;;;;;;;;;;;2.80;86.00;;;;;;5035961;28;19932;-77
2022/01/27 11:37:48;;;;;;;;;;;3.00;85.60;;;;;;5039235;28;19975;-78
2022/01/27 11:40:17;;;;;;;;;;;3.10;84.60;;;;;;5032021;28;19929;-76
2022/01/27 11:42:56;;;;;;;;;;;3.30;84.50;;;;;;5037374;28;19936;-77
2022/01/27 11:45:23;;;;;;;;;;;3.40;83.50;;;;;;5049812;28;19924;-77
2022/01/27 11:48:07;;;;;;;;;;;3.50;82.80;;;;;;5045411;28;19941;-75
2022/01/27 11:50:47;;;;;;;;;;;3.50;82.00;;;;;;5038162;28;19925;-77
2022/01/27 11:53:31;;;;;;;;;;;3.60;82.50;;;;;;5042760;28;19924;-78
2022/01/27 11:56:06;;;;;;;;;;;3.80;82.50;;;;;;5045348;28;19925;-78
2022/01/27 11:58:43;;;;;;;;;;;4.00;81.70;;;;;;5049839;28;20389;-77
2022/01/27 12:01:11;;;;;;;;;;;4.10;81.30;;;;;;5024300;28;19979;-78
2022/01/27 12:03:38;;;;;;;;;;;4.10;81.10;;;;;;5042076;28;19974;-78
2022/01/27 12:06:17;;;;;;;;;;;4.30;79.90;;;;;;5031193;28;19928;-77
2022/01/27 12:08:44;;;;;;;;;;;4.50;79.40;;;;;;5056508;28;20761;-78
2022/01/27 12:11:38;;;;;;;;;;;4.60;78.50;;;;;;5038750;28;20020;-76
2022/01/27 12:14:05;;;;;;;;;;;4.70;78.20;;;;;;5066768;28;19960;-77
2022/01/27 12:18:59;;;;;;;;;;;4.90;77.00;;;;;;5050654;28;19970;-77
2022/01/27 12:21:30;;;;;;;;;;;5.00;76.70;;;;;;5053054;28;19972;-77
2022/01/27 12:24:17;;;;;;;;;;;5.10;76.00;;;;;;5051104;28;19924;-78
2022/01/27 12:26:44;;;;;;;;;;;5.20;74.90;;;;;;5068947;28;19931;-76
2022/01/27 12:29:19;;;;;;;;;;;5.30;74.40;;;;;;5069920;28;19928;-77
2022/01/27 12:31:46;;;;;;;;;;;5.40;73.10;;;;;;5069996;28;20444;-79
2022/01/27 12:34:13;;;;;;;;;;;5.40;71.90;;;;;;5069480;28;19932;-77
2022/01/27 12:36:52;;;;;;;;;;;5.60;72.20;;;;;;5057717;28;19929;-77
2022/01/27 12:39:24;;;;;;;;;;;5.70;71.50;;;;;;5037934;28;20711;-77
2022/01/27 12:41:50;;;;;;;;;;;5.80;69.60;;;;;;5038251;28;19982;-78
2022/01/27 12:44:17;;;;;;;;;;;6.10;70.00;;;;;;5038399;28;19932;-77
2022/01/27 12:47:00;;;;;;;;;;;6.20;68.00;;;;;;5035485;28;20339;-77
2022/01/27 12:49:46;;;;;;;;;;;6.20;68.20;;;;;;5021722;28;20495;-76
2022/01/27 12:52:16;;;;;;;;;;;6.40;68.50;;;;;;5052699;28;19928;-77
2022/01/27 12:54:44;;;;;;;;;;;6.50;67.40;;;;;;5049284;28;19932;-79
2022/01/27 12:57:29;;;;;;;;;;;6.70;66.80;;;;;;5056656;28;19931;-78
2022/01/27 12:59:56;;;;;;;;;;;6.90;67.00;;;;;;5040282;28;19936;-78
2022/01/27 13:02:24;;;;;;;;;;;7.00;65.50;;;;;;5038766;28;20459;-79
2022/01/27 13:04:56;;;;;;;;;;;7.00;65.20;;;;;;5048955;28;19924;-77
2022/01/27 13:07:24;;;;;;;;;;;7.10;65.00;;;;;;5051507;28;19935;-76
2022/01/27 13:10:00;;;;;;;;;;;7.10;65.00;;;;;;5037788;28;19928;-79
2022/01/27 13:12:40;;;;;;;;;;;7.10;64.70;;;;;;5045734;28;19940;-79
2022/01/27 13:15:13;;;;;;;;;;;7.30;64.40;;;;;;5059459;28;19935;-79
2022/01/27 13:17:52;;;;;;;;;;;7.40;64.00;;;;;;5043403;28;20046;-77
2022/01/27 13:20:45;;;;;;;;;;;7.50;64.00;;;;;;5038025;28;19939;-79
2022/01/27 13:23:17;;;;;;;;;;;7.70;63.50;;;;;;5058911;28;20391;-78
2022/01/27 13:25:45;;;;;;;;;;;7.80;62.90;;;;;;5063714;28;19924;-77
2022/01/27 13:28:22;;;;;;;;;;;7.70;63.10;;;;;;5062884;28;19932;-79
2022/01/27 13:30:51;;;;;;;;;;;7.80;63.50;;;;;;5056667;28;19973;-76
2022/01/27 13:33:21;;;;;;;;;;;7.80;63.60;;;;;;5050364;28;19975;-77
2022/01/27 13:35:49;;;;;;;;;;;7.70;64.00;;;;;;5056394;28;19960;-78
2022/01/27 13:38:28;;;;;;;;;;;7.70;64.00;;;;;;5073237;28;19932;-79
2022/01/27 13:41:18;;;;;;;;;;;7.70;64.10;;;;;;5068322;28;19990;-79
2022/01/27 13:43:47;;;;;;;;;;;7.50;65.20;;;;;;5032244;28;20820;-79
2022/01/27 13:46:41;;;;;;;;;;;7.40;65.30;;;;;;5038195;28;20308;-77
2022/01/27 13:49:08;;;;;;;;;;;7.50;65.00;;;;;;5035444;28;19982;-79
2022/01/27 13:51:53;;;;;;;;;;;7.50;63.90;;;;;;5035550;28;19929;-79
2022/01/27 13:54:34;;;;;;;;;;;7.50;64.80;;;;;;5047709;28;19929;-79
2022/01/27 13:57:03;;;;;;;;;;;7.60;65.00;;;;;;5042078;28;19929;-79
2022/01/27 14:02:19;;;;;;;;;;;7.40;62.90;;;;;;5052698;28;20015;-77
2022/01/27 14:04:50;;;;;;;;;;;7.30;64.10;;;;;;5052151;28;20012;-80
2022/01/27 14:07:34;;;;;;;;;;;7.40;63.80;;;;;;5072703;28;19928;-80
2022/01/27 14:10:12;;;;;;;;;;;7.40;63.80;;;;;;5053678;28;19929;-77
2022/01/27 14:13:01;;;;;;;;;;;7.50;62.90;;;;;;5053146;28;19925;-76
2022/01/27 14:15:41;;;;;;;;;;;7.50;62.70;;;;;;5051971;28;20426;-79
2022/01/27 14:18:16;;;;;;;;;;;7.40;62.40;;;;;;5064110;28;19925;-79
2022/01/27 14:20:49;;;;;;;;;;;7.40;63.00;;;;;;5047110;28;19932;-80
2022/01/27 14:23:23;;;;;;;;;;;7.30;63.70;;;;;;5051456;28;19924;-77
2022/01/27 14:25:59;;;;;;;;;;;7.40;64.10;;;;;;5037614;28;20435;-79
2022/01/27 14:28:26;;;;;;;;;;;7.50;64.50;;;;;;5045517;28;19939;-79
2022/01/27 14:30:53;;;;;;;;;;;7.40;64.60;;;;;;5043888;28;20003;-77
2022/01/27 14:33:19;;;;;;;;;;;7.40;65.70;;;;;;5052687;28;19959;-77
2022/01/27 14:35:46;;;;;;;;;;;7.30;65.60;;;;;;5034722;28;19925;-79
2022/01/27 14:38:13;;;;;;;;;;;7.20;66.50;;;;;;5050828;28;19971;-80
2022/01/27 14:40:40;;;;;;;;;;;7.20;66.50;;;;;;5027002;28;20419;-78
2022/01/27 14:43:07;;;;;;;;;;;7.20;66.90;;;;;;5039102;28;19963;-79
2022/01/27 14:45:34;;;;;;;;;;;7.10;66.80;;;;;;5067451;28;20257;-80
2022/01/27 14:48:23;;;;;;;;;;;7.20;67.00;;;;;;5038401;28;19956;-79
2022/01/27 14:50:51;;;;;;;;;;;7.10;67.40;;;;;;5027938;28;19940;-80
2022/01/27 14:53:18;;;;;;;;;;;7.10;67.10;;;;;;4991762;28;20394;-77
2022/01/27 14:55:45;;;;;;;;;;;7.10;67.00;;;;;;4992367;28;19936;-79
2022/01/27 14:58:12;;;;;;;;;;;7.00;67.40;;;;;;4992110;28;19925;-77
2022/01/27 15:00:39;;;;;;;;;;;7.00;67.60;;;;;;5011181;28;19929;-79
2022/01/27 15:03:05;;;;;;;;;;;7.10;67.60;;;;;;5011886;28;20309;-77
2022/01/27 15:05:33;;;;;;;;;;;7.10;67.40;;;;;;5008424;28;19976;-79
2022/01/27 15:07:59;;;;;;;;;;;7.10;67.40;;;;;;5000433;28;19925;-78
2022/01/27 15:10:26;;;;;;;;;;;7.10;67.20;;;;;;4997282;28;20008;-79
2022/01/27 15:12:54;;;;;;;;;;;7.10;67.90;;;;;;5003484;28;19926;-79
2022/01/27 15:20:57;;;;;;;;;;;6.90;68.60;;;;;;5004028;28;19933;-76
2022/01/27 15:23:24;;;;;;;;;;;6.80;69.60;;;;;;5016590;28;20477;-77
2022/01/27 15:25:51;;;;;;;;;;;6.70;69.60;;;;;;5014195;28;19929;-79
2022/01/27 15:28:18;;;;;;;;;;;6.50;70.10;;;;;;5006610;28;19926;-79
2022/01/27 15:30:45;;;;;;;;;;;6.50;70.50;;;;;;5007950;28;19929;-77
2022/01/27 15:33:13;;;;;;;;;;;6.40;71.00;;;;;;5010630;28;20401;-77
2022/01/27 15:35:42;;;;;;;;;;;6.30;71.10;;;;;;4999994;28;19929;-78
2022/01/27 15:38:09;;;;;;;;;;;6.30;71.30;;;;;;5000324;28;19926;-79
2022/01/27 15:40:38;;;;;;;;;;;6.20;71.50;;;;;;5002019;28;20293;-79
2022/01/27 15:43:06;;;;;;;;;;;6.10;72.00;;;;;;5006353;28;19932;-79
2022/01/27 15:45:33;;;;;;;;;;;6.10;72.00;;;;;;5006440;28;19932;-76
2022/01/27 15:48:02;;;;;;;;;;;6.00;72.10;;;;;;4994364;28;19933;-77